Time;durP1;ratioP1;P1;durP2;ratioP2;P2;SDS_P1;SDS_P2;PMS_P1;PMS_P2;Temp;Humidity;BMP_temperature;BMP_pressure;BME280_temperature;BME280_humidity;BME280_pressure;Samples;Min_cycle;Max_cycle;Signal;HPM_P1;HPM_P2
2022/04/29 00:00:20;;;;;;;6.95;4.78;;;;;;;;;;5052971;28;20052;-81
2022/04/29 00:02:51;;;;;;;6.93;5.38;;;;;;;;;;5035276;28;20499;-81
2022/04/29 00:05:19;;;;;;;8.95;5.40;;;;;;;;;;5070492;28;20052;-81
2022/04/29 00:07:51;;;;;;;5.65;5.10;;;;;;;;;;5050480;28;20071;-82
2022/04/29 00:10:20;;;;;;;6.72;6.03;;;;;;;;;;5052073;28;20044;-82
2022/04/29 00:12:48;;;;;;;7.80;4.75;;;;;;;;;;5052314;28;20043;-81
2022/04/29 00:15:17;;;;;;;6.40;5.88;;;;;;;;;;5035649;28;20044;-81
2022/04/29 00:17:46;;;;;;;6.15;5.68;;;;;;;;;;5051567;28;20037;-81
2022/04/29 00:20:15;;;;;;;5.97;4.90;;;;;;;;;;5052570;28;20056;-81
2022/04/29 00:22:44;;;;;;;4.93;4.53;;;;;;;;;;5069412;28;20045;-81
2022/04/29 00:25:12;;;;;;;6.20;5.30;;;;;;;;;;5035642;28;20407;-81
2022/04/29 00:27:41;;;;;;;7.15;6.45;;;;;;;;;;5034844;28;20403;-81
2022/04/29 00:30:10;;;;;;;6.55;5.53;;;;;;;;;;5034949;28;20044;-81
2022/04/29 00:32:39;;;;;;;6.53;5.45;;;;;;;;;;5062419;28;20044;-81
2022/04/29 00:35:08;;;;;;;6.90;6.32;;;;;;;;;;5035022;28;20659;-81
2022/04/29 00:37:47;;;;;;;7.18;5.82;;;;;;;;;;5034481;28;20048;-81
2022/04/29 00:40:15;;;;;;;5.38;4.88;;;;;;;;;;5035168;28;20060;-81
2022/04/29 00:42:45;;;;;;;5.32;4.82;;;;;;;;;;5034826;28;20048;-81
2022/04/29 00:45:14;;;;;;;6.72;5.28;;;;;;;;;;5052538;28;20070;-81
2022/04/29 00:47:42;;;;;;;5.20;4.78;;;;;;;;;;5017967;28;20051;-81
2022/04/29 00:50:11;;;;;;;13.38;6.30;;;;;;;;;;5055411;28;20036;-81
2022/04/29 00:52:42;;;;;;;6.57;5.40;;;;;;;;;;5071872;28;20048;-81
2022/04/29 00:55:10;;;;;;;7.18;5.00;;;;;;;;;;5071673;28;20048;-81
2022/04/29 00:57:57;;;;;;;6.30;5.70;;;;;;;;;;5057107;28;20047;-81
2022/04/29 01:00:25;;;;;;;7.03;5.72;;;;;;;;;;5074689;28;20052;-81
2022/04/29 01:03:11;;;;;;;6.20;5.65;;;;;;;;;;5075721;28;20047;-81
2022/04/29 01:06:33;;;;;;;7.50;6.80;;;;;;;;;;5049567;28;20494;-81
2022/04/29 01:09:39;;;;;;;5.15;4.75;;;;;;;;;;5072657;28;20041;-81
2022/04/29 01:12:42;;;;;;;5.45;5.05;;;;;;;;;;5030373;28;20051;-81
2022/04/29 01:15:13;;;;;;;6.95;6.38;;;;;;;;;;5073432;28;20048;-81
2022/04/29 01:17:44;;;;;;;7.18;5.75;;;;;;;;;;5055013;28;20113;-81
2022/04/29 01:20:14;;;;;;;6.60;6.10;;;;;;;;;;5056370;28;20044;-81
2022/04/29 01:22:43;;;;;;;5.70;5.18;;;;;;;;;;5043700;28;20056;-81
2022/04/29 01:25:12;;;;;;;12.50;5.57;;;;;;;;;;5038948;28;20479;-81
2022/04/29 01:27:45;;;;;;;6.55;5.95;;;;;;;;;;5054463;28;20060;-81
2022/04/29 01:30:18;;;;;;;9.95;5.55;;;;;;;;;;5022095;28;20051;-81
2022/04/29 01:32:46;;;;;;;7.28;6.57;;;;;;;;;;5038399;28;20059;-81
2022/04/29 01:35:15;;;;;;;6.45;4.72;;;;;;;;;;5038408;28;20395;-81
2022/04/29 01:37:44;;;;;;;8.13;5.90;;;;;;;;;;5037331;28;20052;-81
2022/04/29 01:40:12;;;;;;;8.13;7.43;;;;;;;;;;5055203;28;20044;-81
2022/04/29 01:42:41;;;;;;;6.50;5.97;;;;;;;;;;5038045;28;20045;-81
2022/04/29 01:45:10;;;;;;;7.55;6.82;;;;;;;;;;5043629;28;20055;-81
2022/04/29 01:48:01;;;;;;;7.32;5.80;;;;;;;;;;5040483;28;20048;-81
2022/04/29 01:50:43;;;;;;;7.07;5.90;;;;;;;;;;5062449;28;20510;-81
2022/04/29 01:53:11;;;;;;;6.25;5.75;;;;;;;;;;5065367;28;20040;-81
2022/04/29 01:55:39;;;;;;;5.90;5.40;;;;;;;;;;5057263;28;20048;-81
2022/04/29 01:58:09;;;;;;;7.80;6.97;;;;;;;;;;5040510;28;20044;-81
2022/04/29 02:00:37;;;;;;;7.63;6.45;;;;;;;;;;5038670;28;20052;-81
2022/04/29 02:03:06;;;;;;;8.68;5.95;;;;;;;;;;5062312;28;20403;-81
2022/04/29 02:05:36;;;;;;;8.18;7.38;;;;;;;;;;5070843;28;20067;-81
2022/04/29 02:08:05;;;;;;;11.43;6.50;;;;;;;;;;5057986;28;20059;-81
2022/04/29 02:10:33;;;;;;;7.75;7.03;;;;;;;;;;5071062;28;20041;-81
2022/04/29 02:13:01;;;;;;;7.13;6.22;;;;;;;;;;5054651;28;20055;-81
2022/04/29 02:15:48;;;;;;;7.65;6.82;;;;;;;;;;5054012;28;20045;-81
2022/04/29 02:18:17;;;;;;;6.55;5.95;;;;;;;;;;5037228;28;20059;-81
2022/04/29 02:20:47;;;;;;;8.57;7.20;;;;;;;;;;5054176;28;20052;-81
2022/04/29 02:23:16;;;;;;;8.95;6.25;;;;;;;;;;5070316;28;20049;-81
2022/04/29 02:25:45;;;;;;;7.75;5.95;;;;;;;;;;5071899;28;20059;-81
2022/04/29 02:28:13;;;;;;;6.97;5.45;;;;;;;;;;5054098;28;20048;-81
2022/04/29 02:30:41;;;;;;;7.93;7.13;;;;;;;;;;5055593;28;20566;-86
2022/04/29 02:33:09;;;;;;;7.88;6.93;;;;;;;;;;5041871;28;20044;-85
2022/04/29 02:35:41;;;;;;;6.95;6.45;;;;;;;;;;5041290;28;20044;-81
2022/04/29 02:38:10;;;;;;;6.18;5.68;;;;;;;;;;5056102;28;20040;-82
2022/04/29 02:40:38;;;;;;;8.40;6.07;;;;;;;;;;5074422;28;20055;-81
2022/04/29 02:43:06;;;;;;;6.80;6.07;;;;;;;;;;5057327;28;20043;-81
2022/04/29 02:45:34;;;;;;;6.15;5.60;;;;;;;;;;5073388;28;20402;-83
2022/04/29 02:48:04;;;;;;;7.53;6.80;;;;;;;;;;5040219;28;20047;-77
2022/04/29 02:50:32;;;;;;;6.65;5.95;;;;;;;;;;5073442;28;20379;-77
2022/04/29 02:53:04;;;;;;;9.35;8.45;;;;;;;;;;5073268;28;20052;-77
2022/04/29 02:55:32;;;;;;;12.25;7.63;;;;;;;;;;5072899;28;20044;-77
2022/04/29 02:58:14;;;;;;;7.13;6.43;;;;;;;;;;5072681;28;20039;-77
2022/04/29 03:00:42;;;;;;;8.20;5.30;;;;;;;;;;5092523;28;20372;-85
2022/04/29 03:03:12;;;;;;;11.32;6.35;;;;;;;;;;5041206;28;20542;-84
2022/04/29 03:05:40;;;;;;;9.20;6.57;;;;;;;;;;5092034;28;20390;-84
2022/04/29 03:08:10;;;;;;;7.35;6.10;;;;;;;;;;5072992;28;20402;-77
2022/04/29 03:10:38;;;;;;;6.97;6.25;;;;;;;;;;5072912;28;20044;-76
2022/04/29 03:13:06;;;;;;;7.75;6.95;;;;;;;;;;5091830;28;20052;-77
2022/04/29 03:15:43;;;;;;;6.88;6.28;;;;;;;;;;5072747;28;20499;-77
2022/04/29 03:18:21;;;;;;;6.22;5.63;;;;;;;;;;5072391;28;20679;-77
2022/04/29 03:20:56;;;;;;;7.90;7.10;;;;;;;;;;5072575;28;20040;-76
2022/04/29 03:23:24;;;;;;;7.15;6.07;;;;;;;;;;5072411;28;20052;-76
2022/04/29 03:25:54;;;;;;;7.93;6.43;;;;;;;;;;5090606;28;20044;-77
2022/04/29 03:28:23;;;;;;;7.70;6.90;;;;;;;;;;5072926;28;20044;-76
2022/04/29 03:30:52;;;;;;;6.53;5.88;;;;;;;;;;5072701;28;20044;-77
2022/04/29 03:33:39;;;;;;;8.32;7.53;;;;;;;;;;5072639;28;20044;-78
2022/04/29 03:37:00;;;;;;;7.15;5.88;;;;;;;;;;5090430;28;20047;-77
2022/04/29 03:40:21;;;;;;;8.80;6.40;;;;;;;;;;5040944;28;20044;-77
2022/04/29 03:43:12;;;;;;;8.48;7.65;;;;;;;;;;5073437;28;20677;-77
2022/04/29 03:46:36;;;;;;;7.25;6.47;;;;;;;;;;5058765;28;20037;-76
2022/04/29 03:50:05;;;;;;;7.18;6.50;;;;;;;;;;5070002;28;20037;-77
2022/04/29 03:53:11;;;;;;;7.80;6.13;;;;;;;;;;5061834;28;20033;-77
2022/04/29 03:55:42;;;;;;;11.13;9.33;;;;;;;;;;5048905;28;20056;-77
2022/04/29 03:58:10;;;;;;;8.80;6.35;;;;;;;;;;5056351;28;20059;-76
2022/04/29 04:00:49;;;;;;;6.60;5.90;;;;;;;;;;5047811;28;20369;-77
2022/04/29 04:03:30;;;;;;;10.60;6.95;;;;;;;;;;5062586;28;20037;-76
2022/04/29 04:08:54;;;;;;;10.80;8.27;;;;;;;;;;5049160;28;20112;-86
2022/04/29 04:11:22;;;;;;;11.73;7.25;;;;;;;;;;5049820;28;20045;-82
2022/04/29 04:13:50;;;;;;;8.48;7.57;;;;;;;;;;5032445;28;20403;-83
2022/04/29 04:16:27;;;;;;;8.77;6.75;;;;;;;;;;5015929;28;20056;-83
2022/04/29 04:18:55;;;;;;;9.70;6.07;;;;;;;;;;5032235;28;20121;-83
2022/04/29 04:21:23;;;;;;;13.75;10.25;;;;;;;;;;5032214;28;20049;-83
2022/04/29 04:23:53;;;;;;;8.15;6.75;;;;;;;;;;5040559;28;20049;-83
2022/04/29 04:26:21;;;;;;;6.90;6.18;;;;;;;;;;5034914;28;20040;-81
2022/04/29 04:28:50;;;;;;;8.85;6.47;;;;;;;;;;5033061;28;20064;-81
2022/04/29 04:31:21;;;;;;;9.60;8.38;;;;;;;;;;5040227;28;20404;-81
2022/04/29 04:33:54;;;;;;;7.22;6.55;;;;;;;;;;5047271;28;20507;-82
2022/04/29 04:36:22;;;;;;;6.68;6.07;;;;;;;;;;5034344;28;20392;-81
2022/04/29 04:38:51;;;;;;;8.88;7.75;;;;;;;;;;5039183;28;20045;-81
2022/04/29 04:41:19;;;;;;;7.43;6.65;;;;;;;;;;5032594;28;20503;-81
2022/04/29 04:43:47;;;;;;;5.97;5.38;;;;;;;;;;5031180;28;20044;-81
2022/04/29 04:46:15;;;;;;;8.50;6.85;;;;;;;;;;5057891;28;20048;-81
2022/04/29 04:49:15;;;;;;;7.40;5.97;;;;;;;;;;5071456;28;20044;-81
2022/04/29 04:51:57;;;;;;;8.95;7.55;;;;;;;;;;5056616;28;20060;-81
2022/04/29 04:54:30;;;;;;;8.15;6.80;;;;;;;;;;5031491;28;20049;-82
2022/04/29 04:56:58;;;;;;;7.30;6.47;;;;;;;;;;5068622;28;20119;-81
2022/04/29 04:59:27;;;;;;;8.50;7.15;;;;;;;;;;5031173;28;20045;-81
2022/04/29 05:01:57;;;;;;;7.18;6.57;;;;;;;;;;5031631;28;20045;-83
2022/04/29 05:04:44;;;;;;;10.60;7.05;;;;;;;;;;5019431;28;20430;-82
2022/04/29 05:07:38;;;;;;;6.20;5.60;;;;;;;;;;5035511;28;20064;-82
2022/04/29 05:10:08;;;;;;;5.95;5.28;;;;;;;;;;5031496;28;20045;-83
2022/04/29 05:12:41;;;;;;;5.18;4.78;;;;;;;;;;5031801;28;20063;-82
2022/04/29 05:15:22;;;;;;;4.63;4.32;;;;;;;;;;5042261;28;20514;-83
2022/04/29 05:17:50;;;;;;;5.70;5.20;;;;;;;;;;5020892;28;20494;-82
2022/04/29 05:20:27;;;;;;;7.10;5.82;;;;;;;;;;5071839;28;20044;-82
2022/04/29 05:22:55;;;;;;;7.07;5.68;;;;;;;;;;5071231;28;20626;-84
2022/04/29 05:25:23;;;;;;;7.00;6.25;;;;;;;;;;5090087;28;20040;-83
2022/04/29 05:28:11;;;;;;;6.60;6.03;;;;;;;;;;5051095;28;20048;-83
2022/04/29 05:30:59;;;;;;;5.80;5.30;;;;;;;;;;5065740;28;20052;-83
2022/04/29 05:33:46;;;;;;;6.10;5.53;;;;;;;;;;5043552;28;20044;-84
2022/04/29 05:36:36;;;;;;;6.88;5.72;;;;;;;;;;5057360;28;20053;-82
2022/04/29 05:44:37;;;;;;;5.32;4.93;;;;;;;;;;5062014;28;20048;-83
2022/04/29 05:47:06;;;;;;;7.63;6.13;;;;;;;;;;5081999;28;20054;-83
2022/04/29 05:49:35;;;;;;;13.18;5.30;;;;;;;;;;5082774;28;20482;-83
2022/04/29 05:52:04;;;;;;;6.40;4.65;;;;;;;;;;5048465;28;20478;-83
2022/04/29 05:54:35;;;;;;;6.90;5.10;;;;;;;;;;5065376;28;20044;-83
2022/04/29 05:57:09;;;;;;;5.63;4.75;;;;;;;;;;5062120;28;20040;-83
2022/04/29 05:59:37;;;;;;;5.07;4.63;;;;;;;;;;5081979;28;20527;-83
2022/04/29 06:02:08;;;;;;;;;;;;;;;;;;5061418;28;20462;-83
2022/04/29 06:04:43;;;;;;;5.30;4.80;;;;;;;;;;5066229;28;19927;-83
2022/04/29 06:07:11;;;;;;;5.05;4.55;;;;;;;;;;5082094;28;20044;-83
2022/04/29 06:09:40;;;;;;;7.63;5.30;;;;;;;;;;5078401;28;20122;-84
2022/04/29 06:12:10;;;;;;;5.45;4.82;;;;;;;;;;5067545;28;20048;-83
2022/04/29 06:14:38;;;;;;;5.38;4.88;;;;;;;;;;5029449;28;20044;-83
2022/04/29 06:17:07;;;;;;;5.53;4.97;;;;;;;;;;5088845;28;20072;-83
2022/04/29 06:19:53;;;;;;;4.57;3.90;;;;;;;;;;5062265;28;20052;-83
2022/04/29 06:22:52;;;;;;;6.38;4.38;;;;;;;;;;5066949;28;20083;-83
2022/04/29 06:25:27;;;;;;;4.90;4.47;;;;;;;;;;5090518;28;20043;-83
2022/04/29 06:27:56;;;;;;;5.15;4.75;;;;;;;;;;5091102;28;20675;-83
2022/04/29 06:30:24;;;;;;;8.98;4.60;;;;;;;;;;5061867;28;20048;-83
2022/04/29 06:33:31;;;;;;;5.03;4.20;;;;;;;;;;5078237;28;20052;-83
2022/04/29 06:36:01;;;;;;;5.35;4.72;;;;;;;;;;5065411;28;20059;-83
2022/04/29 06:38:31;;;;;;;4.82;4.35;;;;;;;;;;5043201;28;20530;-83
2022/04/29 06:41:20;;;;;;;4.30;3.90;;;;;;;;;;5044077;28;20044;-82
2022/04/29 06:44:09;;;;;;;5.97;4.63;;;;;;;;;;5051240;28;20044;-82
2022/04/29 06:46:56;;;;;;;6.13;5.63;;;;;;;;;;5087694;28;20094;-83
2022/04/29 06:49:43;;;;;;;5.70;4.90;;;;;;;;;;5063467;28;20569;-84
2022/04/29 06:52:47;;;;;;;5.38;4.90;;;;;;;;;;4984229;28;20042;-84
2022/04/29 06:55:20;;;;;;;4.15;3.78;;;;;;;;;;5023734;28;20895;-85
2022/04/29 06:57:49;;;;;;;5.53;4.70;;;;;;;;;;5049158;28;20051;-84
2022/04/29 07:00:19;;;;;;;4.35;3.58;;;;;;;;;;5050307;28;20055;-85
2022/04/29 07:02:48;;;;;;;4.18;3.78;;;;;;;;;;5049498;28;20044;-85
2022/04/29 07:05:17;;;;;;;4.85;4.22;;;;;;;;;;5050228;28;20044;-85
2022/04/29 07:07:49;;;;;;;12.85;5.25;;;;;;;;;;5035081;28;20044;-86
2022/04/29 07:10:35;;;;;;;4.50;4.15;;;;;;;;;;5076213;28;20049;-86
2022/04/29 07:13:33;;;;;;;6.43;4.53;;;;;;;;;;5047664;28;20807;-87
2022/04/29 07:16:04;;;;;;;4.68;4.25;;;;;;;;;;5046265;28;20055;-88
2022/04/29 07:19:05;;;;;;;7.70;4.50;;;;;;;;;;5054389;28;20536;-87
2022/04/29 07:21:38;;;;;;;4.60;4.20;;;;;;;;;;5047400;28;20573;-88
2022/04/29 07:24:08;;;;;;;5.88;4.82;;;;;;;;;;5044933;28;20043;-84
2022/04/29 07:26:39;;;;;;;5.57;4.65;;;;;;;;;;5057521;28;20044;-86
2022/04/29 07:29:10;;;;;;;;;;;;;;;;;;5035980;28;20059;-86
2022/04/29 07:31:46;;;;;;;7.75;5.10;;;;;;;;;;5036495;28;19924;-88
2022/04/29 07:41:44;;;;;;;4.60;4.20;;;;;;;;;;5075611;28;20063;-87
2022/04/29 07:43:16;;;;;;;4.88;4.47;;;;;;;;;;5070117;28;20052;-86
2022/04/29 07:45:45;;;;;;;4.50;4.10;;;;;;;;;;5058307;28;20043;-87
2022/04/29 07:48:31;;;;;;;4.18;3.83;;;;;;;;;;5059190;28;20043;-86
2022/04/29 07:51:01;;;;;;;4.13;3.80;;;;;;;;;;5060011;28;20036;-87
2022/04/29 07:53:31;;;;;;;6.25;4.22;;;;;;;;;;5051598;28;20059;-88
2022/04/29 07:56:02;;;;;;;4.18;3.78;;;;;;;;;;5056921;28;20040;-87
2022/04/29 07:58:37;;;;;;;4.40;4.10;;;;;;;;;;5073886;28;20525;-86
2022/04/29 08:01:13;;;;;;;4.68;4.28;;;;;;;;;;5076247;28;20040;-88
2022/04/29 08:03:45;;;;;;;5.25;4.85;;;;;;;;;;5073548;28;20051;-87
2022/04/29 08:06:17;;;;;;;5.32;4.65;;;;;;;;;;5042517;28;20399;-88
2022/04/29 08:08:47;;;;;;;5.15;4.65;;;;;;;;;;5059379;28;20095;-86
2022/04/29 08:11:24;;;;;;;5.88;5.32;;;;;;;;;;5062489;28;20040;-86
2022/04/29 08:14:33;;;;;;;4.68;4.15;;;;;;;;;;4963271;28;20034;-84
2022/04/29 08:17:33;;;;;;;4.55;4.15;;;;;;;;;;5047624;28;20398;-86
2022/04/29 08:20:09;;;;;;;4.68;4.13;;;;;;;;;;5067617;28;20036;-88
2022/04/29 08:22:45;;;;;;;4.57;4.28;;;;;;;;;;5071985;28;20421;-88
2022/04/29 08:25:19;;;;;;;5.55;4.78;;;;;;;;;;5074506;28;20047;-87
2022/04/29 08:27:54;;;;;;;11.38;4.10;;;;;;;;;;5078082;28;20040;-87
2022/04/29 08:30:23;;;;;;;4.55;3.95;;;;;;;;;;5049122;28;20040;-88
2022/04/29 08:32:52;;;;;;;5.22;3.58;;;;;;;;;;5052631;28;20044;-88
2022/04/29 08:35:36;;;;;;;4.13;3.47;;;;;;;;;;5065321;28;20051;-88
2022/04/29 08:38:09;;;;;;;3.15;2.65;;;;;;;;;;5033431;28;20070;-88
2022/04/29 08:40:46;;;;;;;4.45;4.00;;;;;;;;;;5049455;28;20058;-86
2022/04/29 08:43:21;;;;;;;3.72;3.42;;;;;;;;;;5050502;28;20482;-85
2022/04/29 08:45:57;;;;;;;3.50;3.20;;;;;;;;;;5049848;28;20059;-86
2022/04/29 08:49:10;;;;;;;4.93;3.60;;;;;;;;;;5051405;28;20360;-86
2022/04/29 08:51:44;;;;;;;5.00;3.42;;;;;;;;;;5052793;28;20042;-81
2022/04/29 09:00:00;;;;;;;4.55;3.05;;;;;;;;;;5065513;28;20044;-82
2022/04/29 09:02:39;;;;;;;5.20;2.83;;;;;;;;;;5082929;28;20036;-80
2022/04/29 09:05:13;;;;;;;4.20;3.88;;;;;;;;;;5073096;28;20036;-82
2022/04/29 09:07:56;;;;;;;3.92;2.92;;;;;;;;;;5082631;28;20410;-77
2022/04/29 09:10:32;;;;;;;3.25;2.88;;;;;;;;;;5080986;28;20047;-77
2022/04/29 09:13:12;;;;;;;4.25;3.05;;;;;;;;;;5064418;28;20051;-78
2022/04/29 09:15:50;;;;;;;3.03;2.70;;;;;;;;;;5085606;28;20569;-78
2022/04/29 09:18:39;;;;;;;4.13;3.38;;;;;;;;;;5067395;28;20808;-82
2022/04/29 09:21:16;;;;;;;3.88;3.45;;;;;;;;;;5055922;28;20052;-84
2022/04/29 09:24:10;;;;;;;13.02;3.30;;;;;;;;;;5073622;28;20548;-82
2022/04/29 09:27:14;;;;;;;3.88;3.08;;;;;;;;;;5080263;28;20054;-82
2022/04/29 09:30:15;;;;;;;5.32;3.33;;;;;;;;;;5058885;28;20124;-82
2022/04/29 09:33:28;;;;;;;4.63;3.40;;;;;;;;;;5057254;28;20056;-83
2022/04/29 09:36:21;;;;;;;4.95;3.97;;;;;;;;;;5054532;28;20059;-82
2022/04/29 09:42:03;;;;;;;3.45;2.90;;;;;;;;;;5079986;28;20474;-83
2022/04/29 09:44:34;;;;;;;5.80;3.70;;;;;;;;;;5077639;28;20395;-84
2022/04/29 09:47:13;;;;;;;3.08;2.78;;;;;;;;;;5082643;28;20041;-83
2022/04/29 09:49:42;;;;;;;3.50;3.00;;;;;;;;;;5067901;28;20454;-81
2022/04/29 09:52:18;;;;;;;2.97;2.78;;;;;;;;;;5070834;28;20052;-84
2022/04/29 09:54:46;;;;;;;5.25;3.60;;;;;;;;;;5034639;28;20434;-81
2022/04/29 09:57:15;;;;;;;4.38;3.58;;;;;;;;;;5051274;28;20055;-80
2022/04/29 09:59:51;;;;;;;5.35;4.85;;;;;;;;;;5069324;28;20537;-80
2022/04/29 10:02:21;;;;;;;2.83;2.63;;;;;;;;;;5068906;28;20040;-83
2022/04/29 10:04:53;;;;;;;7.05;4.00;;;;;;;;;;5035042;28;20049;-82
2022/04/29 10:07:23;;;;;;;3.67;3.37;;;;;;;;;;5049605;28;20048;-81
2022/04/29 10:10:09;;;;;;;6.53;2.88;;;;;;;;;;5034349;28;20497;-83
2022/04/29 10:12:38;;;;;;;3.50;2.45;;;;;;;;;;5056499;28;20072;-84
2022/04/29 10:15:25;;;;;;;5.00;4.50;;;;;;;;;;5042125;28;20075;-80
2022/04/29 10:21:15;;;;;;;3.50;3.20;;;;;;;;;;5027619;28;20047;-82
2022/04/29 10:23:51;;;;;;;2.92;2.63;;;;;;;;;;4976542;28;20550;-78
2022/04/29 10:26:22;;;;;;;4.47;3.40;;;;;;;;;;5004829;28;20045;-79
2022/04/29 10:28:51;;;;;;;3.22;2.30;;;;;;;;;;5042577;28;20052;-82
2022/04/29 10:31:23;;;;;;;2.80;2.60;;;;;;;;;;5020300;28;20042;-78
2022/04/29 10:33:51;;;;;;;13.02;4.97;;;;;;;;;;5025279;28;20049;-79
2022/04/29 10:36:26;;;;;;;8.85;3.15;;;;;;;;;;5008021;28;20069;-79
2022/04/29 10:39:00;;;;;;;4.18;3.88;;;;;;;;;;5007971;28;20041;-80
2022/04/29 10:41:30;;;;;;;7.72;3.63;;;;;;;;;;5008671;28;20101;-78
2022/04/29 10:43:58;;;;;;;3.42;2.75;;;;;;;;;;5027698;28;20408;-80
2022/04/29 10:46:33;;;;;;;2.72;2.53;;;;;;;;;;5052691;28;20052;-76
2022/04/29 10:49:32;;;;;;;3.65;3.33;;;;;;;;;;5069227;28;20051;-76
2022/04/29 10:52:05;;;;;;;4.40;3.60;;;;;;;;;;5054415;28;20048;-79
2022/04/29 10:54:56;;;;;;;3.40;3.10;;;;;;;;;;5056595;28;20051;-78
2022/04/29 10:57:44;;;;;;;4.18;3.25;;;16.30;75.70;;;;;;5065990;28;20044;-82
2022/04/29 11:00:22;;;;;;;4.72;4.18;;;16.30;75.90;;;;;;5071860;28;20032;-77
2022/04/29 11:02:55;;;;;;;7.40;5.43;;;16.30;77.10;;;;;;5049049;28;20044;-81
2022/04/29 11:05:42;;;;;;;3.53;3.20;;;16.40;76.50;;;;;;5074080;28;20406;-78
2022/04/29 11:08:10;;;;;;;3.85;3.50;;;16.30;74.60;;;;;;5072918;28;20048;-79
2022/04/29 11:10:58;;;;;;;4.68;3.60;;;16.20;75.40;;;;;;5091448;28;20043;-80
2022/04/29 11:13:30;;;;;;;6.63;5.60;;;16.20;77.80;;;;;;5057008;28;20048;-78
2022/04/29 11:16:10;;;;;;;4.00;3.60;;;16.40;78.60;;;;;;5091492;28;20051;-80
2022/04/29 11:19:18;;;;;;;5.25;4.75;;;16.50;79.70;;;;;;5072735;28;20501;-79
2022/04/29 11:24:48;;;;;;;6.47;4.40;;;16.60;79.90;;;;;;5073291;28;20052;-80
2022/04/29 11:27:37;;;;;;;3.00;2.78;;;16.60;81.50;;;;;;5072719;28;20052;-77
2022/04/29 11:30:10;;;;;;;3.67;2.90;;;16.60;77.80;;;;;;5056203;28;20040;-78
2022/04/29 11:34:07;;;;;;;3.28;3.05;;;16.60;81.10;;;;;;5093092;28;20054;-86
2022/04/29 11:37:17;;;;;;;2.58;2.40;;;16.70;75.00;;;;;;5034089;28;20391;-85
2022/04/29 11:39:56;;;;;;;2.90;2.67;;;16.60;73.60;;;;;;5051652;28;20036;-84
2022/04/29 11:43:08;;;;;;;2.42;2.22;;;16.60;75.10;;;;;;5060684;28;20051;-84
2022/04/29 11:45:41;;;;;;;4.55;4.10;;;16.50;78.90;;;;;;5055176;28;20138;-84
2022/04/29 11:48:11;;;;;;;5.75;3.60;;;16.30;79.30;;;;;;5056319;28;20044;-84
2022/04/29 11:50:45;;;;;;;3.35;3.05;;;16.30;80.50;;;;;;5069281;28;20044;-82
2022/04/29 11:53:13;;;;;;;4.47;4.07;;;16.30;80.20;;;;;;5063968;28;20047;-82
2022/04/29 11:55:49;;;;;;;3.92;3.63;;;16.40;78.20;;;;;;5038855;28;20036;-82
2022/04/29 11:58:17;;;;;;;5.40;3.80;;;16.40;77.10;;;;;;5071708;28;20052;-82
2022/04/29 12:00:50;;;;;;;4.07;3.63;;;16.60;79.30;;;;;;5072786;28;20059;-81
2022/04/29 12:03:25;;;;;;;4.32;3.90;;;17.00;83.00;;;;;;5072743;28;20052;-84
2022/04/29 12:06:02;;;;;;;3.70;3.33;;;17.20;79.00;;;;;;5089465;28;20047;-84
2022/04/29 12:08:41;;;;;;;3.13;2.85;;;17.10;79.20;;;;;;5070351;28;20048;-82
2022/04/29 12:11:37;;;;;;;3.47;3.17;;;17.10;76.80;;;;;;5080495;28;20048;-81
2022/04/29 12:14:18;;;;;;;6.97;5.35;;;17.10;79.20;;;;;;5061097;28;20051;-82
2022/04/29 12:16:46;;;;;;;3.90;3.57;;;17.10;80.70;;;;;;5070573;28;20107;-82
2022/04/29 12:19:16;;;;;;;11.40;4.40;;;17.10;82.20;;;;;;5073901;28;20290;-84
2022/04/29 12:21:58;;;;;;;4.65;4.07;;;17.10;79.20;;;;;;5083361;28;20066;-80
2022/04/29 12:24:26;;;;;;;6.13;4.63;;;;;;;;;;5099940;28;20475;-85
2022/04/29 12:27:04;;;;;;;4.63;3.25;;;17.10;78.80;;;;;;5051747;28;20055;-85
2022/04/29 12:29:33;;;;;;;4.15;3.75;;;17.10;80.30;;;;;;5057381;28;20047;-84
2022/04/29 12:35:19;;;;;;;7.45;5.25;;;16.80;79.70;;;;;;4971474;28;20045;-83
2022/04/29 12:37:53;;;;;;;7.72;3.67;;;16.70;81.90;;;;;;5070018;28;20063;-82
2022/04/29 12:40:41;;;;;;;9.90;2.90;;;16.70;77.50;;;;;;5058388;28;20049;-81
2022/04/29 12:43:10;;;;;;;3.85;2.85;;;16.70;81.40;;;;;;5035809;28;20402;-80
2022/04/29 12:45:38;;;;;;;5.15;4.68;;;16.80;82.10;;;;;;5084657;28;20059;-81
2022/04/29 12:48:16;;;;;;;3.67;3.47;;;17.10;81.70;;;;;;5090669;28;20060;-81
2022/04/29 12:50:52;;;;;;;3.67;3.38;;;17.30;83.00;;;;;;5076809;28;20048;-83
2022/04/29 12:53:20;;;;;;;4.88;3.15;;;17.40;80.00;;;;;;5063060;28;20055;-84
2022/04/29 12:55:51;;;;;;;3.47;3.17;;;17.30;81.50;;;;;;5058694;28;20043;-84
2022/04/29 12:58:34;;;;;;;6.13;3.72;;;17.30;84.80;;;;;;5076227;28;20044;-83
2022/04/29 13:01:06;;;;;;;8.00;6.10;;;17.50;87.90;;;;;;5094494;28;20055;-82
2022/04/29 13:03:39;;;;;;;3.83;3.40;;;17.70;83.80;;;;;;5055132;28;20053;-84
2022/04/29 13:06:23;;;;;;;3.13;2.90;;;17.70;78.80;;;;;;5056087;28;20753;-84
2022/04/29 13:08:57;;;;;;;4.85;4.20;;;17.60;81.40;;;;;;5102299;28;20051;-83
2022/04/29 13:11:25;;;;;;;4.65;3.60;;;17.50;78.40;;;;;;5038215;28;20048;-86
2022/04/29 13:13:56;;;;;;;6.65;2.80;;;17.40;77.90;;;;;;5022527;28;20055;-83
2022/04/29 13:16:25;;;;;;;4.82;3.45;;;17.30;77.00;;;;;;5055224;28;20044;-82
2022/04/29 13:18:53;;;;;;;6.70;4.38;;;17.20;77.10;;;;;;5078684;28;20042;-82
2022/04/29 13:21:22;;;;;;;3.60;3.30;;;17.30;80.60;;;;;;5071373;28;20045;-83
2022/04/29 13:24:04;;;;;;;13.82;3.58;;;17.50;80.20;;;;;;5059005;28;20044;-81
2022/04/29 13:26:40;;;;;;;4.05;3.65;;;17.70;82.20;;;;;;5038179;28;20052;-81
2022/04/29 13:29:08;;;;;;;4.38;2.97;;;17.90;76.20;;;;;;5083073;28;20051;-82
2022/04/29 13:31:36;;;;;;;3.55;3.25;;;17.80;79.90;;;;;;5072091;28;20044;-83
2022/04/29 13:34:04;;;;;;;2.70;2.45;;;17.70;75.40;;;;;;5055082;28;20041;-84
2022/04/29 13:36:36;;;;;;;7.00;4.63;;;17.70;74.90;;;;;;5058425;28;20062;-84
2022/04/29 13:39:07;;;;;;;3.42;3.08;;;17.50;76.60;;;;;;5075109;28;20518;-83
2022/04/29 13:41:49;;;;;;;3.47;2.97;;;17.20;75.50;;;;;;5055362;28;20063;-85
2022/04/29 13:44:16;;;;;;;4.50;3.75;;;16.90;75.40;;;;;;5092152;28;20052;-82
2022/04/29 13:46:46;;;;;;;5.18;4.40;;;16.80;78.20;;;;;;5057703;28;20044;-83
2022/04/29 13:49:17;;;;;;;3.53;3.25;;;17.00;75.40;;;;;;5075799;28;20521;-84
2022/04/29 13:51:50;;;;;;;3.33;3.03;;;17.00;74.60;;;;;;5090891;28;20043;-85
2022/04/29 13:54:18;;;;;;;4.70;3.25;;;17.10;75.00;;;;;;5080344;28;20044;-82
2022/04/29 13:56:46;;;;;;;3.47;3.17;;;17.20;79.70;;;;;;5073026;28;20060;-82
2022/04/29 13:59:14;;;;;;;2.90;2.70;;;17.40;72.30;;;;;;5072493;28;20040;-82
2022/04/29 14:01:42;;;;;;;6.18;3.47;;;17.60;71.40;;;;;;5072674;28;20045;-82
2022/04/29 14:04:10;;;;;;;5.78;3.15;;;17.80;72.40;;;;;;5072508;28;20045;-82
2022/04/29 14:06:39;;;;;;;3.42;2.83;;;18.00;71.60;;;;;;5053951;28;20041;-82
2022/04/29 14:09:06;;;;;;;16.38;4.60;;;18.10;70.10;;;;;;5054556;28;20067;-82
2022/04/29 14:11:35;;;;;;;2.95;2.50;;;18.10;74.40;;;;;;5037716;28;20041;-83
2022/04/29 14:14:03;;;;;;;11.68;3.50;;;18.30;73.00;;;;;;5054545;28;20074;-85
2022/04/29 14:16:34;;;;;;;4.30;2.20;;;18.30;72.40;;;;;;5038720;28;20418;-83
2022/04/29 14:19:27;;;;;;;5.22;3.42;;;18.20;71.10;;;;;;5039804;28;20083;-82
2022/04/29 14:21:55;;;;;;;2.78;2.58;;;18.20;76.40;;;;;;5071727;28;20044;-84
2022/04/29 14:24:23;;;;;;;3.55;2.95;;;18.20;76.30;;;;;;5055007;28;20454;-83
2022/04/29 14:26:51;;;;;;;8.40;4.47;;;18.10;71.00;;;;;;5071024;28;20846;-85
2022/04/29 14:29:19;;;;;;;3.60;3.30;;;18.20;72.30;;;;;;5072519;28;20162;-82
2022/04/29 14:31:46;;;;;;;9.27;4.10;;;18.10;72.80;;;;;;5071907;28;20044;-84
2022/04/29 14:34:14;;;;;;;3.35;3.15;;;18.00;71.20;;;;;;5071864;28;20051;-84
2022/04/29 14:36:46;;;;;;;3.40;3.10;;;17.90;70.90;;;;;;5054404;28;20655;-84
2022/04/29 14:39:18;;;;;;;4.65;2.80;;;17.90;71.90;;;;;;5070908;28;20041;-84
2022/04/29 14:41:47;;;;;;;4.97;4.35;;;17.90;70.50;;;;;;5054019;28;20048;-84
2022/04/29 14:44:25;;;;;;;2.75;2.55;;;17.80;68.40;;;;;;5055582;28;20052;-82
2022/04/29 14:46:53;;;;;;;5.03;3.70;;;17.80;70.90;;;;;;5038098;28;20056;-82
2022/04/29 14:49:22;;;;;;;2.40;2.20;;;17.90;70.40;;;;;;5034469;28;20044;-82
2022/04/29 14:51:50;;;;;;;5.85;2.95;;;17.90;66.00;;;;;;5050334;28;20041;-82
2022/04/29 14:54:18;;;;;;;3.58;3.25;;;17.70;66.20;;;;;;5071517;28;20048;-83
2022/04/29 14:56:46;;;;;;;2.90;2.28;;;17.50;64.70;;;;;;5072121;28;20807;-81
2022/04/29 14:59:14;;;;;;;4.38;3.28;;;17.40;66.50;;;;;;5053376;28;20499;-83
2022/04/29 15:01:43;;;;;;;2.45;2.25;;;17.40;67.80;;;;;;5036415;28;20063;-81
2022/04/29 15:04:11;;;;;;;6.28;2.83;;;17.20;70.40;;;;;;5053967;28;20056;-82
2022/04/29 15:06:39;;;;;;;4.45;3.17;;;17.10;72.00;;;;;;5069566;28;20407;-81
2022/04/29 15:17:31;;;;;;;9.80;3.20;;;16.90;72.50;;;;;;5070885;28;20044;-81
2022/04/29 15:20:00;;;;;;;2.15;2.05;;;16.90;74.40;;;;;;5053609;28;20056;-81
2022/04/29 15:22:29;;;;;;;2.78;2.58;;;16.80;73.50;;;;;;5035996;28;20051;-83
2022/04/29 15:24:58;;;;;;;4.18;2.92;;;16.70;72.10;;;;;;5053849;28;20044;-82
2022/04/29 15:27:26;;;;;;;4.50;2.78;;;16.70;72.40;;;;;;5044497;28;20072;-80
2022/04/29 15:29:53;;;;;;;3.25;2.95;;;16.80;71.50;;;;;;5070861;28;20060;-80
2022/04/29 15:32:21;;;;;;;5.50;3.47;;;17.00;70.30;;;;;;5071206;28;20045;-84